sensor_id;sensor_type;location;lat;lon;timestamp;temperature;humidity
31783;DHT22;18351;47.560;9.708;2024-02-23T00:01:36;7.90;99.90
31783;DHT22;18351;47.560;9.708;2024-02-23T00:04:01;7.90;99.90
31783;DHT22;18351;47.560;9.708;2024-02-23T00:06:28;7.90;99.90
31783;DHT22;18351;47.560;9.708;2024-02-23T00:08:54;7.90;99.90
31783;DHT22;18351;47.560;9.708;2024-02-23T00:11:20;7.80;99.90
31783;DHT22;18351;47.560;9.708;2024-02-23T00:13:46;7.80;99.90
31783;DHT22;18351;47.560;9.708;2024-02-23T00:16:12;7.80;99.90
31783;DHT22;18351;47.560;9.708;2024-02-23T00:18:38;7.70;99.90
31783;DHT22;18351;47.560;9.708;2024-02-23T00:21:07;7.70;99.90
31783;DHT22;18351;47.560;9.708;2024-02-23T00:23:32;7.70;99.90
31783;DHT22;18351;47.560;9.708;2024-02-23T00:25:58;7.60;99.90
31783;DHT22;18351;47.560;9.708;2024-02-23T00:28:23;7.60;99.90
31783;DHT22;18351;47.560;9.708;2024-02-23T00:30:49;7.60;99.90
31783;DHT22;18351;47.560;9.708;2024-02-23T00:33:14;7.60;99.90
31783;DHT22;18351;47.560;9.708;2024-02-23T00:35:40;7.60;99.90
31783;DHT22;18351;47.560;9.708;2024-02-23T00:38:05;7.60;99.90
31783;DHT22;18351;47.560;9.708;2024-02-23T00:40:33;7.50;99.90
31783;DHT22;18351;47.560;9.708;2024-02-23T00:42:58;7.50;99.90
31783;DHT22;18351;47.560;9.708;2024-02-23T00:45:25;7.50;99.90
31783;DHT22;18351;47.560;9.708;2024-02-23T00:47:51;7.40;99.90
31783;DHT22;18351;47.560;9.708;2024-02-23T00:50:16;7.40;99.90
31783;DHT22;18351;47.560;9.708;2024-02-23T00:52:42;7.40;99.90
31783;DHT22;18351;47.560;9.708;2024-02-23T00:55:08;7.30;99.90
31783;DHT22;18351;47.560;9.708;2024-02-23T00:57:34;7.30;99.90
31783;DHT22;18351;47.560;9.708;2024-02-23T01:00:01;7.20;99.90
31783;DHT22;18351;47.560;9.708;2024-02-23T01:02:28;7.20;99.90
31783;DHT22;18351;47.560;9.708;2024-02-23T01:04:54;7.20;99.90
31783;DHT22;18351;47.560;9.708;2024-02-23T01:07:22;7.20;99.90
31783;DHT22;18351;47.560;9.708;2024-02-23T01:09:48;7.10;99.90
31783;DHT22;18351;47.560;9.708;2024-02-23T01:12:14;7.10;99.90
31783;DHT22;18351;47.560;9.708;2024-02-23T01:14:39;7.00;99.90
31783;DHT22;18351;47.560;9.708;2024-02-23T01:17:05;7.00;99.90
31783;DHT22;18351;47.560;9.708;2024-02-23T01:19:30;7.00;99.90
31783;DHT22;18351;47.560;9.708;2024-02-23T01:21:56;7.00;99.90
31783;DHT22;18351;47.560;9.708;2024-02-23T01:24:28;6.90;99.90
31783;DHT22;18351;47.560;9.708;2024-02-23T01:26:55;6.90;99.90
31783;DHT22;18351;47.560;9.708;2024-02-23T01:29:24;6.90;99.90
31783;DHT22;18351;47.560;9.708;2024-02-23T01:31:50;6.70;99.90
31783;DHT22;18351;47.560;9.708;2024-02-23T01:34:16;6.70;99.90
31783;DHT22;18351;47.560;9.708;2024-02-23T01:36:42;6.70;99.90
31783;DHT22;18351;47.560;9.708;2024-02-23T01:39:08;6.70;99.90
31783;DHT22;18351;47.560;9.708;2024-02-23T01:41:33;6.70;99.90
31783;DHT22;18351;47.560;9.708;2024-02-23T01:43:59;6.60;99.90
31783;DHT22;18351;47.560;9.708;2024-02-23T01:46:24;6.60;99.90
31783;DHT22;18351;47.560;9.708;2024-02-23T01:48:50;6.70;99.90
31783;DHT22;18351;47.560;9.708;2024-02-23T01:51:16;6.60;99.90
31783;DHT22;18351;47.560;9.708;2024-02-23T01:53:42;6.70;99.90
31783;DHT22;18351;47.560;9.708;2024-02-23T01:56:08;6.70;99.90
31783;DHT22;18351;47.560;9.708;2024-02-23T01:58:35;6.70;99.90
31783;DHT22;18351;47.560;9.708;2024-02-23T02:01:01;6.70;99.90
31783;DHT22;18351;47.560;9.708;2024-02-23T02:03:27;6.70;99.90
31783;DHT22;18351;47.560;9.708;2024-02-23T02:05:53;6.80;99.90
31783;DHT22;18351;47.560;9.708;2024-02-23T02:08:20;6.80;99.90
31783;DHT22;18351;47.560;9.708;2024-02-23T02:10:46;6.80;99.90
31783;DHT22;18351;47.560;9.708;2024-02-23T02:13:12;6.90;99.90
31783;DHT22;18351;47.560;9.708;2024-02-23T02:15:38;7.00;99.90
31783;DHT22;18351;47.560;9.708;2024-02-23T02:18:04;7.10;99.90
31783;DHT22;18351;47.560;9.708;2024-02-23T02:20:32;7.10;99.90
31783;DHT22;18351;47.560;9.708;2024-02-23T02:22:58;7.10;99.90
31783;DHT22;18351;47.560;9.708;2024-02-23T02:25:24;7.20;99.90
31783;DHT22;18351;47.560;9.708;2024-02-23T02:27:49;7.20;99.90
31783;DHT22;18351;47.560;9.708;2024-02-23T02:30:15;7.30;99.90
31783;DHT22;18351;47.560;9.708;2024-02-23T02:32:40;7.10;99.90
31783;DHT22;18351;47.560;9.708;2024-02-23T02:35:06;6.90;99.90
31783;DHT22;18351;47.560;9.708;2024-02-23T02:37:32;6.80;99.90
31783;DHT22;18351;47.560;9.708;2024-02-23T02:39:57;6.70;99.90
31783;DHT22;18351;47.560;9.708;2024-02-23T02:42:23;6.50;99.90
31783;DHT22;18351;47.560;9.708;2024-02-23T02:44:48;6.40;99.90
31783;DHT22;18351;47.560;9.708;2024-02-23T02:47:14;6.30;99.90
31783;DHT22;18351;47.560;9.708;2024-02-23T02:49:40;6.30;99.90
31783;DHT22;18351;47.560;9.708;2024-02-23T02:52:06;6.30;99.90
31783;DHT22;18351;47.560;9.708;2024-02-23T02:54:33;6.20;99.90
31783;DHT22;18351;47.560;9.708;2024-02-23T02:56:59;6.10;99.90
31783;DHT22;18351;47.560;9.708;2024-02-23T02:59:24;6.10;99.90
31783;DHT22;18351;47.560;9.708;2024-02-23T03:01:50;5.90;99.90
31783;DHT22;18351;47.560;9.708;2024-02-23T03:04:15;5.90;99.90
31783;DHT22;18351;47.560;9.708;2024-02-23T03:06:41;5.90;99.90
31783;DHT22;18351;47.560;9.708;2024-02-23T03:09:06;5.80;99.90
31783;DHT22;18351;47.560;9.708;2024-02-23T03:11:32;5.70;99.90
31783;DHT22;18351;47.560;9.708;2024-02-23T03:13:58;5.70;99.90
31783;DHT22;18351;47.560;9.708;2024-02-23T03:16:23;5.70;99.90
31783;DHT22;18351;47.560;9.708;2024-02-23T03:18:51;5.70;99.90
31783;DHT22;18351;47.560;9.708;2024-02-23T03:21:19;5.70;99.90
31783;DHT22;18351;47.560;9.708;2024-02-23T03:23:45;5.70;99.90
31783;DHT22;18351;47.560;9.708;2024-02-23T03:26:10;5.70;99.90
31783;DHT22;18351;47.560;9.708;2024-02-23T03:28:36;5.70;99.90
31783;DHT22;18351;47.560;9.708;2024-02-23T03:31:01;5.70;99.90
31783;DHT22;18351;47.560;9.708;2024-02-23T03:33:27;5.80;99.90
31783;DHT22;18351;47.560;9.708;2024-02-23T03:35:53;5.80;99.90
31783;DHT22;18351;47.560;9.708;2024-02-23T03:38:18;5.80;99.90
31783;DHT22;18351;47.560;9.708;2024-02-23T03:40:44;5.80;99.90
31783;DHT22;18351;47.560;9.708;2024-02-23T03:43:09;5.90;99.90
31783;DHT22;18351;47.560;9.708;2024-02-23T03:45:35;5.80;99.90
31783;DHT22;18351;47.560;9.708;2024-02-23T03:48:03;5.90;99.90
31783;DHT22;18351;47.560;9.708;2024-02-23T03:50:29;5.80;99.90
31783;DHT22;18351;47.560;9.708;2024-02-23T03:52:55;5.80;99.90
31783;DHT22;18351;47.560;9.708;2024-02-23T03:55:20;5.80;99.90
31783;DHT22;18351;47.560;9.708;2024-02-23T03:57:47;5.80;99.90
31783;DHT22;18351;47.560;9.708;2024-02-23T04:00:13;5.80;99.90
31783;DHT22;18351;47.560;9.708;2024-02-23T04:02:38;5.80;99.90
31783;DHT22;18351;47.560;9.708;2024-02-23T04:05:05;5.80;99.90
31783;DHT22;18351;47.560;9.708;2024-02-23T04:07:31;5.90;99.90
31783;DHT22;18351;47.560;9.708;2024-02-23T04:09:56;5.90;99.90
31783;DHT22;18351;47.560;9.708;2024-02-23T04:12:22;5.90;99.90
31783;DHT22;18351;47.560;9.708;2024-02-23T04:14:47;5.90;99.90
31783;DHT22;18351;47.560;9.708;2024-02-23T04:17:13;5.90;99.90
31783;DHT22;18351;47.560;9.708;2024-02-23T04:19:40;5.90;99.90
31783;DHT22;18351;47.560;9.708;2024-02-23T04:22:06;5.80;99.90
31783;DHT22;18351;47.560;9.708;2024-02-23T04:24:34;5.80;99.90
31783;DHT22;18351;47.560;9.708;2024-02-23T04:26:59;5.80;99.90
31783;DHT22;18351;47.560;9.708;2024-02-23T04:29:25;5.80;99.90
31783;DHT22;18351;47.560;9.708;2024-02-23T04:31:50;5.80;99.90
31783;DHT22;18351;47.560;9.708;2024-02-23T04:34:16;5.70;99.90
31783;DHT22;18351;47.560;9.708;2024-02-23T04:36:42;5.70;99.90
31783;DHT22;18351;47.560;9.708;2024-02-23T04:39:07;5.70;99.90
31783;DHT22;18351;47.560;9.708;2024-02-23T04:41:33;5.70;99.90
31783;DHT22;18351;47.560;9.708;2024-02-23T04:43:59;5.70;99.90
31783;DHT22;18351;47.560;9.708;2024-02-23T04:46:25;5.70;99.90
31783;DHT22;18351;47.560;9.708;2024-02-23T04:48:51;5.60;99.90
31783;DHT22;18351;47.560;9.708;2024-02-23T04:51:16;5.60;99.90
31783;DHT22;18351;47.560;9.708;2024-02-23T04:53:42;5.60;99.90
31783;DHT22;18351;47.560;9.708;2024-02-23T04:56:08;5.60;99.90
31783;DHT22;18351;47.560;9.708;2024-02-23T04:58:33;5.60;99.90
31783;DHT22;18351;47.560;9.708;2024-02-23T05:00:59;5.60;99.90
31783;DHT22;18351;47.560;9.708;2024-02-23T05:03:25;5.60;99.90
31783;DHT22;18351;47.560;9.708;2024-02-23T05:05:51;5.60;99.90
31783;DHT22;18351;47.560;9.708;2024-02-23T05:08:20;5.60;99.90
31783;DHT22;18351;47.560;9.708;2024-02-23T05:10:48;5.60;99.90
31783;DHT22;18351;47.560;9.708;2024-02-23T05:13:14;5.70;99.90
31783;DHT22;18351;47.560;9.708;2024-02-23T05:15:40;5.70;99.90
31783;DHT22;18351;47.560;9.708;2024-02-23T05:18:05;5.60;99.90
31783;DHT22;18351;47.560;9.708;2024-02-23T05:20:31;5.60;99.90
31783;DHT22;18351;47.560;9.708;2024-02-23T05:22:57;5.70;99.90
31783;DHT22;18351;47.560;9.708;2024-02-23T05:25:22;5.70;99.90
31783;DHT22;18351;47.560;9.708;2024-02-23T05:27:48;5.80;99.90
31783;DHT22;18351;47.560;9.708;2024-02-23T05:30:14;5.80;99.90
31783;DHT22;18351;47.560;9.708;2024-02-23T05:32:39;5.80;99.90
31783;DHT22;18351;47.560;9.708;2024-02-23T05:35:05;5.70;99.90
31783;DHT22;18351;47.560;9.708;2024-02-23T05:37:31;5.70;99.90
31783;DHT22;18351;47.560;9.708;2024-02-23T05:39:56;5.70;99.90
31783;DHT22;18351;47.560;9.708;2024-02-23T05:42:25;5.70;99.90
31783;DHT22;18351;47.560;9.708;2024-02-23T05:44:51;5.70;99.90
31783;DHT22;18351;47.560;9.708;2024-02-23T05:47:16;5.70;99.90
31783;DHT22;18351;47.560;9.708;2024-02-23T05:49:43;5.70;99.90
31783;DHT22;18351;47.560;9.708;2024-02-23T05:52:08;5.80;99.90
31783;DHT22;18351;47.560;9.708;2024-02-23T05:54:35;5.80;99.90
31783;DHT22;18351;47.560;9.708;2024-02-23T05:57:00;5.80;99.90
31783;DHT22;18351;47.560;9.708;2024-02-23T05:59:26;5.80;99.90
31783;DHT22;18351;47.560;9.708;2024-02-23T06:01:52;5.80;99.90
31783;DHT22;18351;47.560;9.708;2024-02-23T06:04:22;5.80;99.90
31783;DHT22;18351;47.560;9.708;2024-02-23T06:06:48;5.80;99.90
31783;DHT22;18351;47.560;9.708;2024-02-23T06:09:13;5.70;99.90
31783;DHT22;18351;47.560;9.708;2024-02-23T06:11:39;5.70;99.90
31783;DHT22;18351;47.560;9.708;2024-02-23T06:14:04;5.70;99.90
31783;DHT22;18351;47.560;9.708;2024-02-23T06:16:30;5.70;99.90
31783;DHT22;18351;47.560;9.708;2024-02-23T06:18:55;5.70;99.90
31783;DHT22;18351;47.560;9.708;2024-02-23T06:21:21;5.70;99.90
31783;DHT22;18351;47.560;9.708;2024-02-23T06:23:46;5.80;99.90
31783;DHT22;18351;47.560;9.708;2024-02-23T06:26:12;5.80;99.90
31783;DHT22;18351;47.560;9.708;2024-02-23T06:28:38;5.90;99.90
31783;DHT22;18351;47.560;9.708;2024-02-23T06:31:06;5.90;99.90
31783;DHT22;18351;47.560;9.708;2024-02-23T06:33:32;5.90;99.90
31783;DHT22;18351;47.560;9.708;2024-02-23T06:35:58;5.90;99.90
31783;DHT22;18351;47.560;9.708;2024-02-23T06:38:23;6.00;99.90
31783;DHT22;18351;47.560;9.708;2024-02-23T06:40:49;6.00;99.90
31783;DHT22;18351;47.560;9.708;2024-02-23T06:43:14;6.00;99.90
31783;DHT22;18351;47.560;9.708;2024-02-23T06:45:40;6.10;99.90
31783;DHT22;18351;47.560;9.708;2024-02-23T06:48:06;6.10;99.90
31783;DHT22;18351;47.560;9.708;2024-02-23T06:50:31;6.10;99.90
31783;DHT22;18351;47.560;9.708;2024-02-23T06:52:57;6.00;99.90
31783;DHT22;18351;47.560;9.708;2024-02-23T06:55:22;6.00;99.90
31783;DHT22;18351;47.560;9.708;2024-02-23T06:57:48;6.00;99.90
31783;DHT22;18351;47.560;9.708;2024-02-23T07:00:14;6.10;99.90
31783;DHT22;18351;47.560;9.708;2024-02-23T07:02:39;6.10;99.90
31783;DHT22;18351;47.560;9.708;2024-02-23T07:05:06;6.20;99.90
31783;DHT22;18351;47.560;9.708;2024-02-23T07:07:32;6.20;99.90
31783;DHT22;18351;47.560;9.708;2024-02-23T07:09:59;6.20;99.90
31783;DHT22;18351;47.560;9.708;2024-02-23T07:12:25;6.20;99.90
31783;DHT22;18351;47.560;9.708;2024-02-23T07:14:53;6.20;99.90
31783;DHT22;18351;47.560;9.708;2024-02-23T07:17:18;6.20;99.90
31783;DHT22;18351;47.560;9.708;2024-02-23T07:19:44;6.30;99.90
31783;DHT22;18351;47.560;9.708;2024-02-23T07:22:10;6.30;99.90
31783;DHT22;18351;47.560;9.708;2024-02-23T07:24:42;6.30;99.90
31783;DHT22;18351;47.560;9.708;2024-02-23T07:27:08;6.30;99.90
31783;DHT22;18351;47.560;9.708;2024-02-23T07:29:33;6.30;99.90
31783;DHT22;18351;47.560;9.708;2024-02-23T07:31:59;6.40;99.90
31783;DHT22;18351;47.560;9.708;2024-02-23T07:34:25;6.40;99.90
31783;DHT22;18351;47.560;9.708;2024-02-23T07:36:53;6.50;99.90
31783;DHT22;18351;47.560;9.708;2024-02-23T07:39:20;6.50;99.90
31783;DHT22;18351;47.560;9.708;2024-02-23T07:41:46;6.60;99.90
31783;DHT22;18351;47.560;9.708;2024-02-23T07:44:11;6.60;99.90
31783;DHT22;18351;47.560;9.708;2024-02-23T07:46:37;6.60;99.90
31783;DHT22;18351;47.560;9.708;2024-02-23T07:49:04;6.60;99.90
31783;DHT22;18351;47.560;9.708;2024-02-23T07:51:31;6.60;99.90
31783;DHT22;18351;47.560;9.708;2024-02-23T07:53:57;6.60;99.90
31783;DHT22;18351;47.560;9.708;2024-02-23T07:56:22;6.70;99.90
31783;DHT22;18351;47.560;9.708;2024-02-23T07:58:48;6.70;99.90
31783;DHT22;18351;47.560;9.708;2024-02-23T08:01:16;6.70;99.90
31783;DHT22;18351;47.560;9.708;2024-02-23T08:03:42;6.60;99.90
31783;DHT22;18351;47.560;9.708;2024-02-23T08:06:08;6.70;99.90
31783;DHT22;18351;47.560;9.708;2024-02-23T08:08:33;6.70;99.90
31783;DHT22;18351;47.560;9.708;2024-02-23T08:11:01;6.70;99.90
31783;DHT22;18351;47.560;9.708;2024-02-23T08:13:27;6.70;99.90
31783;DHT22;18351;47.560;9.708;2024-02-23T08:15:53;6.80;99.90
31783;DHT22;18351;47.560;9.708;2024-02-23T08:18:19;6.70;99.90
31783;DHT22;18351;47.560;9.708;2024-02-23T08:20:44;6.70;99.90
31783;DHT22;18351;47.560;9.708;2024-02-23T08:23:10;6.70;99.90
31783;DHT22;18351;47.560;9.708;2024-02-23T08:25:36;6.80;99.90
31783;DHT22;18351;47.560;9.708;2024-02-23T08:28:01;6.80;99.90
31783;DHT22;18351;47.560;9.708;2024-02-23T08:30:27;6.80;99.90
31783;DHT22;18351;47.560;9.708;2024-02-23T08:32:53;6.90;99.90
31783;DHT22;18351;47.560;9.708;2024-02-23T08:35:18;6.90;99.90
31783;DHT22;18351;47.560;9.708;2024-02-23T08:37:44;6.90;99.90
31783;DHT22;18351;47.560;9.708;2024-02-23T08:40:10;6.90;99.90
31783;DHT22;18351;47.560;9.708;2024-02-23T08:42:36;6.90;99.90
31783;DHT22;18351;47.560;9.708;2024-02-23T08:45:02;6.90;99.90
31783;DHT22;18351;47.560;9.708;2024-02-23T08:47:27;6.90;99.90
31783;DHT22;18351;47.560;9.708;2024-02-23T08:49:57;6.90;99.90
31783;DHT22;18351;47.560;9.708;2024-02-23T08:52:23;7.00;99.90
31783;DHT22;18351;47.560;9.708;2024-02-23T08:54:49;7.00;99.90
31783;DHT22;18351;47.560;9.708;2024-02-23T08:57:14;7.10;99.90
31783;DHT22;18351;47.560;9.708;2024-02-23T08:59:45;7.00;99.90
31783;DHT22;18351;47.560;9.708;2024-02-23T09:02:11;6.90;99.90
31783;DHT22;18351;47.560;9.708;2024-02-23T09:04:36;6.90;99.90
31783;DHT22;18351;47.560;9.708;2024-02-23T09:07:02;6.90;99.90
31783;DHT22;18351;47.560;9.708;2024-02-23T09:09:28;6.90;99.90
31783;DHT22;18351;47.560;9.708;2024-02-23T09:11:53;6.90;99.90
31783;DHT22;18351;47.560;9.708;2024-02-23T09:14:19;6.90;99.90
31783;DHT22;18351;47.560;9.708;2024-02-23T09:16:45;6.90;99.90
31783;DHT22;18351;47.560;9.708;2024-02-23T09:19:11;6.90;99.90
31783;DHT22;18351;47.560;9.708;2024-02-23T09:21:37;6.90;99.90
31783;DHT22;18351;47.560;9.708;2024-02-23T09:24:04;7.00;99.90
31783;DHT22;18351;47.560;9.708;2024-02-23T09:26:30;7.10;99.90
31783;DHT22;18351;47.560;9.708;2024-02-23T09:28:56;7.10;99.90
31783;DHT22;18351;47.560;9.708;2024-02-23T09:31:22;7.10;99.90
31783;DHT22;18351;47.560;9.708;2024-02-23T09:33:47;7.10;99.90
31783;DHT22;18351;47.560;9.708;2024-02-23T09:36:16;7.20;99.90
31783;DHT22;18351;47.560;9.708;2024-02-23T09:38:41;7.20;99.90
31783;DHT22;18351;47.560;9.708;2024-02-23T09:41:15;7.30;99.90
31783;DHT22;18351;47.560;9.708;2024-02-23T09:43:44;7.30;99.90
31783;DHT22;18351;47.560;9.708;2024-02-23T09:46:11;7.30;99.90
31783;DHT22;18351;47.560;9.708;2024-02-23T09:48:38;7.40;99.90
31783;DHT22;18351;47.560;9.708;2024-02-23T09:51:04;7.40;99.90
31783;DHT22;18351;47.560;9.708;2024-02-23T09:53:31;7.40;99.90
31783;DHT22;18351;47.560;9.708;2024-02-23T09:55:57;7.50;99.90
31783;DHT22;18351;47.560;9.708;2024-02-23T09:58:25;7.60;99.90
31783;DHT22;18351;47.560;9.708;2024-02-23T10:00:52;7.50;99.90
31783;DHT22;18351;47.560;9.708;2024-02-23T10:03:18;7.60;99.90
31783;DHT22;18351;47.560;9.708;2024-02-23T10:05:43;7.60;99.90
31783;DHT22;18351;47.560;9.708;2024-02-23T10:08:11;7.70;99.90
31783;DHT22;18351;47.560;9.708;2024-02-23T10:10:38;7.80;99.90
31783;DHT22;18351;47.560;9.708;2024-02-23T10:13:03;7.80;99.90
31783;DHT22;18351;47.560;9.708;2024-02-23T10:15:32;7.90;99.90
31783;DHT22;18351;47.560;9.708;2024-02-23T10:17:57;7.90;99.90
31783;DHT22;18351;47.560;9.708;2024-02-23T10:20:23;8.00;99.90
31783;DHT22;18351;47.560;9.708;2024-02-23T10:22:49;8.10;99.90
31783;DHT22;18351;47.560;9.708;2024-02-23T10:25:15;8.10;99.90
31783;DHT22;18351;47.560;9.708;2024-02-23T10:27:41;8.10;99.90
31783;DHT22;18351;47.560;9.708;2024-02-23T10:30:09;8.20;99.90
31783;DHT22;18351;47.560;9.708;2024-02-23T10:32:41;8.20;99.90
31783;DHT22;18351;47.560;9.708;2024-02-23T10:35:11;8.20;99.90
31783;DHT22;18351;47.560;9.708;2024-02-23T10:37:38;8.30;99.90
31783;DHT22;18351;47.560;9.708;2024-02-23T10:40:06;8.30;99.90
31783;DHT22;18351;47.560;9.708;2024-02-23T10:42:34;8.30;99.90
31783;DHT22;18351;47.560;9.708;2024-02-23T10:45:01;8.40;99.90
31783;DHT22;18351;47.560;9.708;2024-02-23T10:47:28;8.40;99.90
31783;DHT22;18351;47.560;9.708;2024-02-23T10:49:56;8.50;99.90
31783;DHT22;18351;47.560;9.708;2024-02-23T10:52:25;8.50;99.90
31783;DHT22;18351;47.560;9.708;2024-02-23T10:54:52;8.50;99.90
31783;DHT22;18351;47.560;9.708;2024-02-23T10:57:18;8.50;99.90
31783;DHT22;18351;47.560;9.708;2024-02-23T10:59:47;8.50;99.90
31783;DHT22;18351;47.560;9.708;2024-02-23T11:02:18;8.50;99.90
31783;DHT22;18351;47.560;9.708;2024-02-23T11:04:49;8.50;99.90
31783;DHT22;18351;47.560;9.708;2024-02-23T11:07:17;8.50;99.90
31783;DHT22;18351;47.560;9.708;2024-02-23T11:09:48;8.50;99.90
31783;DHT22;18351;47.560;9.708;2024-02-23T11:12:23;8.60;99.90
31783;DHT22;18351;47.560;9.708;2024-02-23T11:14:49;8.60;99.90
31783;DHT22;18351;47.560;9.708;2024-02-23T11:17:19;8.50;99.90
31783;DHT22;18351;47.560;9.708;2024-02-23T11:19:51;8.60;99.90
31783;DHT22;18351;47.560;9.708;2024-02-23T11:22:30;8.60;99.90
31783;DHT22;18351;47.560;9.708;2024-02-23T11:25:06;8.60;99.90
31783;DHT22;18351;47.560;9.708;2024-02-23T11:27:34;8.60;99.90
31783;DHT22;18351;47.560;9.708;2024-02-23T11:30:02;8.50;99.90
31783;DHT22;18351;47.560;9.708;2024-02-23T11:32:45;8.50;99.90
31783;DHT22;18351;47.560;9.708;2024-02-23T11:35:12;8.50;99.90
31783;DHT22;18351;47.560;9.708;2024-02-23T11:37:55;8.40;99.90
31783;DHT22;18351;47.560;9.708;2024-02-23T11:40:25;8.50;99.90
31783;DHT22;18351;47.560;9.708;2024-02-23T11:42:51;8.40;99.90
31783;DHT22;18351;47.560;9.708;2024-02-23T11:45:17;8.50;99.90
31783;DHT22;18351;47.560;9.708;2024-02-23T11:47:43;8.50;99.90
31783;DHT22;18351;47.560;9.708;2024-02-23T11:50:09;8.50;99.90
31783;DHT22;18351;47.560;9.708;2024-02-23T11:52:37;8.50;99.90
31783;DHT22;18351;47.560;9.708;2024-02-23T11:55:03;8.60;99.90
31783;DHT22;18351;47.560;9.708;2024-02-23T11:57:31;8.60;99.90
31783;DHT22;18351;47.560;9.708;2024-02-23T11:59:56;8.60;99.90
31783;DHT22;18351;47.560;9.708;2024-02-23T12:02:24;8.60;99.90
31783;DHT22;18351;47.560;9.708;2024-02-23T12:04:49;8.60;99.90
31783;DHT22;18351;47.560;9.708;2024-02-23T12:07:15;8.50;99.90
31783;DHT22;18351;47.560;9.708;2024-02-23T12:09:41;8.50;99.90
31783;DHT22;18351;47.560;9.708;2024-02-23T12:12:07;8.50;99.90
31783;DHT22;18351;47.560;9.708;2024-02-23T12:14:35;8.50;99.90
31783;DHT22;18351;47.560;9.708;2024-02-23T12:17:02;8.40;99.90
31783;DHT22;18351;47.560;9.708;2024-02-23T12:19:29;8.40;99.90
31783;DHT22;18351;47.560;9.708;2024-02-23T12:22:00;8.40;99.90
31783;DHT22;18351;47.560;9.708;2024-02-23T12:24:26;8.40;99.90
31783;DHT22;18351;47.560;9.708;2024-02-23T12:26:55;8.50;99.90
31783;DHT22;18351;47.560;9.708;2024-02-23T12:29:21;8.60;99.90
31783;DHT22;18351;47.560;9.708;2024-02-23T12:31:47;8.40;99.90
31783;DHT22;18351;47.560;9.708;2024-02-23T12:34:13;8.40;99.90
31783;DHT22;18351;47.560;9.708;2024-02-23T12:36:39;8.40;99.90
31783;DHT22;18351;47.560;9.708;2024-02-23T12:39:05;8.40;99.90
31783;DHT22;18351;47.560;9.708;2024-02-23T12:41:30;8.30;99.90
31783;DHT22;18351;47.560;9.708;2024-02-23T12:43:56;8.20;99.90
31783;DHT22;18351;47.560;9.708;2024-02-23T12:46:22;8.20;99.90
31783;DHT22;18351;47.560;9.708;2024-02-23T12:48:49;8.30;99.90
31783;DHT22;18351;47.560;9.708;2024-02-23T12:51:14;8.30;99.90
31783;DHT22;18351;47.560;9.708;2024-02-23T12:53:41;8.40;99.90
31783;DHT22;18351;47.560;9.708;2024-02-23T12:58:40;8.60;99.90
31783;DHT22;18351;47.560;9.708;2024-02-23T13:01:07;8.50;99.90
31783;DHT22;18351;47.560;9.708;2024-02-23T13:03:34;8.70;99.90
31783;DHT22;18351;47.560;9.708;2024-02-23T13:06:00;8.70;99.90
31783;DHT22;18351;47.560;9.708;2024-02-23T13:08:26;8.90;99.90
31783;DHT22;18351;47.560;9.708;2024-02-23T13:10:52;9.00;99.90
31783;DHT22;18351;47.560;9.708;2024-02-23T13:13:19;9.00;99.90
31783;DHT22;18351;47.560;9.708;2024-02-23T13:15:45;9.10;99.90
31783;DHT22;18351;47.560;9.708;2024-02-23T13:18:10;9.20;99.90
31783;DHT22;18351;47.560;9.708;2024-02-23T13:20:39;9.20;99.90
31783;DHT22;18351;47.560;9.708;2024-02-23T13:23:07;9.20;99.90
31783;DHT22;18351;47.560;9.708;2024-02-23T13:25:37;9.20;99.90
31783;DHT22;18351;47.560;9.708;2024-02-23T13:28:03;9.20;99.90
31783;DHT22;18351;47.560;9.708;2024-02-23T13:30:31;9.30;99.90
31783;DHT22;18351;47.560;9.708;2024-02-23T13:32:57;9.20;99.90
31783;DHT22;18351;47.560;9.708;2024-02-23T13:35:23;9.10;99.90
31783;DHT22;18351;47.560;9.708;2024-02-23T13:37:48;9.10;99.90
31783;DHT22;18351;47.560;9.708;2024-02-23T13:40:14;9.10;99.90
31783;DHT22;18351;47.560;9.708;2024-02-23T13:42:40;9.20;99.90
31783;DHT22;18351;47.560;9.708;2024-02-23T13:45:07;9.20;99.90
31783;DHT22;18351;47.560;9.708;2024-02-23T13:47:33;9.20;99.90
31783;DHT22;18351;47.560;9.708;2024-02-23T13:49:59;9.20;99.90
31783;DHT22;18351;47.560;9.708;2024-02-23T13:52:25;9.10;99.90
31783;DHT22;18351;47.560;9.708;2024-02-23T13:54:50;9.00;99.90
31783;DHT22;18351;47.560;9.708;2024-02-23T13:57:16;9.00;99.90
31783;DHT22;18351;47.560;9.708;2024-02-23T13:59:41;8.90;99.90
31783;DHT22;18351;47.560;9.708;2024-02-23T14:02:07;8.90;99.90
31783;DHT22;18351;47.560;9.708;2024-02-23T14:04:33;8.90;99.90
31783;DHT22;18351;47.560;9.708;2024-02-23T14:06:58;8.90;99.90
31783;DHT22;18351;47.560;9.708;2024-02-23T14:09:24;8.90;99.90
31783;DHT22;18351;47.560;9.708;2024-02-23T14:11:50;8.80;99.90
31783;DHT22;18351;47.560;9.708;2024-02-23T14:14:16;8.80;99.90
31783;DHT22;18351;47.560;9.708;2024-02-23T14:16:42;8.80;99.90
31783;DHT22;18351;47.560;9.708;2024-02-23T14:19:07;8.80;99.90
31783;DHT22;18351;47.560;9.708;2024-02-23T14:21:33;8.80;99.90
31783;DHT22;18351;47.560;9.708;2024-02-23T14:24:01;8.70;99.90
31783;DHT22;18351;47.560;9.708;2024-02-23T14:26:27;8.70;99.90
31783;DHT22;18351;47.560;9.708;2024-02-23T14:28:52;8.70;99.90
31783;DHT22;18351;47.560;9.708;2024-02-23T14:31:18;8.70;99.90
31783;DHT22;18351;47.560;9.708;2024-02-23T14:33:43;8.70;99.90
31783;DHT22;18351;47.560;9.708;2024-02-23T14:36:09;8.60;99.90
31783;DHT22;18351;47.560;9.708;2024-02-23T14:38:34;8.60;99.90
31783;DHT22;18351;47.560;9.708;2024-02-23T14:41:00;8.60;99.90
31783;DHT22;18351;47.560;9.708;2024-02-23T14:43:26;8.60;99.90
31783;DHT22;18351;47.560;9.708;2024-02-23T14:45:51;8.70;99.90
31783;DHT22;18351;47.560;9.708;2024-02-23T14:48:18;8.70;99.90
31783;DHT22;18351;47.560;9.708;2024-02-23T14:50:44;8.70;99.90
31783;DHT22;18351;47.560;9.708;2024-02-23T14:53:09;8.70;99.90
31783;DHT22;18351;47.560;9.708;2024-02-23T14:55:36;8.70;99.90
31783;DHT22;18351;47.560;9.708;2024-02-23T14:58:02;8.70;99.90
31783;DHT22;18351;47.560;9.708;2024-02-23T15:00:28;8.60;99.90
31783;DHT22;18351;47.560;9.708;2024-02-23T15:02:55;8.60;99.90
31783;DHT22;18351;47.560;9.708;2024-02-23T15:05:22;8.60;99.90
31783;DHT22;18351;47.560;9.708;2024-02-23T15:07:48;8.60;99.90
31783;DHT22;18351;47.560;9.708;2024-02-23T15:10:13;8.50;99.90
31783;DHT22;18351;47.560;9.708;2024-02-23T15:12:39;8.50;99.90
31783;DHT22;18351;47.560;9.708;2024-02-23T15:15:05;8.50;99.90
31783;DHT22;18351;47.560;9.708;2024-02-23T15:17:32;8.50;99.90
31783;DHT22;18351;47.560;9.708;2024-02-23T15:19:57;8.40;99.90
31783;DHT22;18351;47.560;9.708;2024-02-23T15:22:23;8.40;99.90
31783;DHT22;18351;47.560;9.708;2024-02-23T15:24:51;8.40;99.90
31783;DHT22;18351;47.560;9.708;2024-02-23T15:27:17;8.30;99.90
31783;DHT22;18351;47.560;9.708;2024-02-23T15:29:43;8.20;99.90
31783;DHT22;18351;47.560;9.708;2024-02-23T15:32:09;8.10;99.90
31783;DHT22;18351;47.560;9.708;2024-02-23T15:34:36;8.10;99.90
31783;DHT22;18351;47.560;9.708;2024-02-23T15:37:02;8.10;99.90
31783;DHT22;18351;47.560;9.708;2024-02-23T15:39:28;8.00;99.90
31783;DHT22;18351;47.560;9.708;2024-02-23T15:41:54;7.90;99.90